EDT,Max TemperatureF,Mean TemperatureF,Min TemperatureF,Max Dew PointF,MeanDew PointF,Min DewpointF,Max Humidity, Mean Humidity, Min Humidity, Max Sea Level PressureIn, Mean Sea Level PressureIn, Min Sea Level PressureIn, Max VisibilityMiles, Mean VisibilityMiles, Min VisibilityMiles, Max Wind SpeedMPH, Mean Wind SpeedMPH, Max Gust SpeedMPH,PrecipitationIn, CloudCover, Events, WindDirDegrees
2013-5-1,50,44,37,30,27,21,70,55,40,,,,,,,13,7,,0.00,2,,87
2013-5-2,46,40,32,34,27,18,87,58,36,,,,,,,30,11,38,0.00,4,,50
2013-5-3,42,34,26,34,28,12,93,75,47,,,,,,,34,23,44,0.00,1,,95
2013-5-4,44,38,33,32,24,19,93,56,39,,,,,,,32,18,38,0.00,1,,76
2013-5-5,46,42,37,30,25,19,60,51,45,,,,,,,24,15,25,0.00,1,,73
2013-5-6,50,46,41,34,25,14,70,45,29,,,,,,,15,7,,0.00,1,,184
2013-5-7,57,49,41,34,25,7,53,41,21,,,,,,,21,10,,0.00,1,,273
2013-5-8,48,44,41,45,38,23,100,79,40,,,,0,0,0,31,16,48,0.59,3,Fog-Rain,134
2013-5-9,48,44,39,46,41,37,100,94,76,,,,20,4,0,31,19,41,0.63,5,Fog-Rain,186
2013-5-10,50,44,39,48,42,37,100,96,76,,,,15,1,0,32,13,39,0.00,7,Fog-Rain,296
2013-5-11,44,42,39,45,43,39,100,100,100,,,,0,0,0,45,35,54,1.82,,Fog-Rain,251
2013-5-12,39,30,19,39,32,19,100,99,86,,,,0,0,0,59,30,59,0.02,6,Fog-Rain-Snow,267
2013-5-13,23,18,14,19,18,14,100,98,86,,,,0,0,0,72,53,84,0.01,8,Fog-Snow,280
2013-5-14,26,20,15,19,16,12,100,85,63,,,,0,0,0,48,37,54,0.00,4,Fog-Snow,318
2013-5-15,37,28,19,37,23,12,100,79,45,,,,0,0,0,62,26,76,0.22,3,Fog-Rain-Hail,273
2013-5-16,42,35,28,36,31,25,100,88,49,,,,0,0,0,70,49,85,0.00,6,Fog,291
2013-5-17,32,28,24,30,27,25,100,97,86,,,,1,0,0,48,39,59,0.22,6,Fog-Snow,340
2013-5-18,41,36,30,32,26,21,93,70,56,,,,,,,20,15,24,0.00,5,,317
2013-5-19,44,40,35,37,29,19,100,69,48,,,,0,0,0,34,12,40,0.31,5,Fog-Rain,200
2013-5-20,46,40,33,45,38,23,100,90,40,,,,0,0,0,54,37,61,1.47,2,Fog-Rain,293
2013-5-21,50,46,42,50,44,9,100,93,22,,,,0,0,0,52,30,71,0.46,6,Fog-Rain-Thunderstorm,272
2013-5-22,51,46,42,52,48,43,100,100,93,,,,0,0,0,48,31,53,0.33,8,Fog-Rain,256
2013-5-23,55,52,48,54,49,46,100,98,72,,,,0,0,0,61,43,71,0.11,5,Fog-Rain,246
2013-5-24,51,42,32,48,45,32,100,99,76,,,,0,0,0,33,19,45,0.35,8,Fog-Rain,231
2013-5-25,28,26,23,28,26,23,100,100,100,,,,0,0,0,43,31,50,1.02,,Fog-Rain-Snow,37
2013-5-26,24,22,21,25,23,19,100,99,86,,,,0,0,0,90,40,102,0.55,3,Fog-Snow,345
2013-5-27,32,28,23,27,25,19,100,89,75,,,,0,0,0,70,52,81,0.00,2,Fog,320
2013-5-28,44,37,30,32,28,18,86,66,52,,,,,,,32,17,,0.00,4,,224
2013-5-29,50,42,35,50,42,28,100,96,75,,,,20,2,0,56,27,66,0.52,8,Fog-Rain,220
2013-5-30,53,50,46,52,49,46,100,98,88,,,,15,1,0,68,57,79,0.00,6,Fog,294
2013-5-31,62,56,50,55,52,50,100,91,77,,,,9,1,0,62,40,67,0.00,5,Fog,288